sensor_id;sensor_type;location;lat;lon;timestamp;pressure;altitude;pressure_sealevel;temperature;humidity
35443;BME280;21561;55.654;37.592;2023-07-31T00:02:00;98577.91;;;18.09;63.62
35443;BME280;21561;55.654;37.592;2023-07-31T00:04:27;98577.91;;;18.09;64.02
35443;BME280;21561;55.654;37.592;2023-07-31T00:06:53;98575.50;;;18.04;64.28
35443;BME280;21561;55.654;37.592;2023-07-31T00:09:20;98578.38;;;18.00;65.04
35443;BME280;21561;55.654;37.592;2023-07-31T00:11:46;98582.03;;;17.97;64.89
35443;BME280;21561;55.654;37.592;2023-07-31T00:14:13;98571.88;;;17.91;65.72
35443;BME280;21561;55.654;37.592;2023-07-31T00:16:40;98581.78;;;17.86;65.57
35443;BME280;21561;55.654;37.592;2023-07-31T00:19:07;98580.19;;;17.82;66.14
35443;BME280;21561;55.654;37.592;2023-07-31T00:21:34;98583.91;;;17.78;66.43
35443;BME280;21561;55.654;37.592;2023-07-31T00:24:00;98572.50;;;17.79;65.77
35443;BME280;21561;55.654;37.592;2023-07-31T00:26:27;98578.50;;;17.81;66.22
35443;BME280;21561;55.654;37.592;2023-07-31T00:28:54;98580.19;;;17.82;65.76
35443;BME280;21561;55.654;37.592;2023-07-31T00:31:20;98579.19;;;17.84;66.08
35443;BME280;21561;55.654;37.592;2023-07-31T00:33:47;98573.25;;;17.81;66.41
35443;BME280;21561;55.654;37.592;2023-07-31T00:36:14;98574.25;;;17.78;66.67
35443;BME280;21561;55.654;37.592;2023-07-31T00:38:40;98573.41;;;17.78;66.65
35443;BME280;21561;55.654;37.592;2023-07-31T00:41:07;98577.84;;;17.77;66.61
35443;BME280;21561;55.654;37.592;2023-07-31T00:43:33;98576.13;;;17.76;66.89
35443;BME280;21561;55.654;37.592;2023-07-31T00:46:00;98578.13;;;17.71;66.69
35443;BME280;21561;55.654;37.592;2023-07-31T00:48:27;98576.00;;;17.62;67.48
35443;BME280;21561;55.654;37.592;2023-07-31T00:50:54;98567.47;;;17.58;67.86
35443;BME280;21561;55.654;37.592;2023-07-31T00:53:21;98565.94;;;17.54;68.20
35443;BME280;21561;55.654;37.592;2023-07-31T00:55:47;98572.28;;;17.50;68.18
35443;BME280;21561;55.654;37.592;2023-07-31T00:58:14;98573.88;;;17.52;68.31
35443;BME280;21561;55.654;37.592;2023-07-31T01:00:41;98574.72;;;17.53;68.26
35443;BME280;21561;55.654;37.592;2023-07-31T01:03:07;98572.88;;;17.55;68.32
35443;BME280;21561;55.654;37.592;2023-07-31T01:08:10;98567.66;;;17.55;68.43
35443;BME280;21561;55.654;37.592;2023-07-31T01:10:43;98565.94;;;17.54;68.16
35443;BME280;21561;55.654;37.592;2023-07-31T01:13:12;98571.19;;;17.54;68.60
35443;BME280;21561;55.654;37.592;2023-07-31T01:15:39;98569.47;;;17.53;68.71
35443;BME280;21561;55.654;37.592;2023-07-31T01:18:05;98566.09;;;17.51;68.74
35443;BME280;21561;55.654;37.592;2023-07-31T01:20:32;98566.25;;;17.48;68.71
35443;BME280;21561;55.654;37.592;2023-07-31T01:28:20;98563.88;;;17.43;69.15
35443;BME280;21561;55.654;37.592;2023-07-31T01:30:47;98562.84;;;17.46;68.87
35443;BME280;21561;55.654;37.592;2023-07-31T01:33:17;98567.09;;;17.48;68.52
35443;BME280;21561;55.654;37.592;2023-07-31T01:35:45;98566.00;;;17.52;68.59
35443;BME280;21561;55.654;37.592;2023-07-31T01:38:12;98567.94;;;17.49;68.70
35443;BME280;21561;55.654;37.592;2023-07-31T01:40:41;98569.66;;;17.50;68.62
35443;BME280;21561;55.654;37.592;2023-07-31T01:43:08;98569.31;;;17.56;68.10
35443;BME280;21561;55.654;37.592;2023-07-31T01:45:34;98564.91;;;17.56;68.27
35443;BME280;21561;55.654;37.592;2023-07-31T01:48:01;98570.09;;;17.58;68.45
35443;BME280;21561;55.654;37.592;2023-07-31T01:50:28;98567.66;;;17.55;68.81
35443;BME280;21561;55.654;37.592;2023-07-31T01:52:54;98560.84;;;17.51;68.72
35443;BME280;21561;55.654;37.592;2023-07-31T01:55:21;98559.94;;;17.52;69.02
35443;BME280;21561;55.654;37.592;2023-07-31T01:57:47;98562.56;;;17.52;68.85
35443;BME280;21561;55.654;37.592;2023-07-31T02:00:15;98571.19;;;17.54;68.42
35443;BME280;21561;55.654;37.592;2023-07-31T02:02:41;98567.66;;;17.55;68.29
35443;BME280;21561;55.654;37.592;2023-07-31T02:05:08;98571.19;;;17.54;68.46
35443;BME280;21561;55.654;37.592;2023-07-31T02:07:35;98573.88;;;17.52;68.56
35443;BME280;21561;55.654;37.592;2023-07-31T02:10:01;98565.47;;;17.46;68.92
35443;BME280;21561;55.654;37.592;2023-07-31T02:12:28;98580.31;;;17.47;69.16
35443;BME280;21561;55.654;37.592;2023-07-31T02:14:58;98568.72;;;17.51;68.92
35443;BME280;21561;55.654;37.592;2023-07-31T02:17:24;98566.25;;;17.48;68.06
35443;BME280;21561;55.654;37.592;2023-07-31T02:20:11;98571.34;;;17.51;67.26
35443;BME280;21561;55.654;37.592;2023-07-31T02:22:38;98558.06;;;17.54;67.79
35443;BME280;21561;55.654;37.592;2023-07-31T02:25:04;98560.69;;;17.54;68.04
35443;BME280;21561;55.654;37.592;2023-07-31T02:27:31;98558.81;;;17.56;68.04
35443;BME280;21561;55.654;37.592;2023-07-31T02:29:58;98571.88;;;17.58;67.72
35443;BME280;21561;55.654;37.592;2023-07-31T02:32:25;98565.78;;;17.57;67.54
35443;BME280;21561;55.654;37.592;2023-07-31T02:34:52;98574.41;;;17.59;67.82
35443;BME280;21561;55.654;37.592;2023-07-31T02:37:19;98569.16;;;17.59;67.67
35443;BME280;21561;55.654;37.592;2023-07-31T02:39:45;98569.84;;;17.63;67.70
35443;BME280;21561;55.654;37.592;2023-07-31T02:42:12;98566.97;;;17.67;67.66
35443;BME280;21561;55.654;37.592;2023-07-31T02:44:39;98566.97;;;17.67;67.70
35443;BME280;21561;55.654;37.592;2023-07-31T02:47:05;98568.66;;;17.68;67.78
35443;BME280;21561;55.654;37.592;2023-07-31T02:49:32;98573.06;;;17.68;67.96
35443;BME280;21561;55.654;37.592;2023-07-31T02:51:59;98568.81;;;17.65;68.48
35443;BME280;21561;55.654;37.592;2023-07-31T02:54:26;98573.00;;;17.69;67.58
35443;BME280;21561;55.654;37.592;2023-07-31T02:56:52;98571.38;;;17.67;68.25
35443;BME280;21561;55.654;37.592;2023-07-31T02:59:19;98567.84;;;17.68;68.30
35443;BME280;21561;55.654;37.592;2023-07-31T03:01:46;98566.97;;;17.67;68.22
35443;BME280;21561;55.654;37.592;2023-07-31T03:04:13;98567.16;;;17.64;68.31
35443;BME280;21561;55.654;37.592;2023-07-31T03:06:43;98567.31;;;17.61;68.30
35443;BME280;21561;55.654;37.592;2023-07-31T03:09:10;98567.22;;;17.63;68.38
35443;BME280;21561;55.654;37.592;2023-07-31T03:11:36;98567.16;;;17.64;67.36
35443;BME280;21561;55.654;37.592;2023-07-31T03:14:03;98570.53;;;17.66;67.14
35443;BME280;21561;55.654;37.592;2023-07-31T03:16:30;98571.38;;;17.67;66.30
35443;BME280;21561;55.654;37.592;2023-07-31T03:18:56;98569.44;;;17.70;67.28
35443;BME280;21561;55.654;37.592;2023-07-31T03:21:23;98564.09;;;17.72;66.69
35443;BME280;21561;55.654;37.592;2023-07-31T03:23:50;98566.31;;;17.80;66.26
35443;BME280;21561;55.654;37.592;2023-07-31T03:26:16;98560.31;;;17.78;66.51
35443;BME280;21561;55.654;37.592;2023-07-31T03:28:43;98554.75;;;17.84;66.14
35443;BME280;21561;55.654;37.592;2023-07-31T03:31:10;98560.91;;;17.83;66.37
35443;BME280;21561;55.654;37.592;2023-07-31T03:33:38;98559.19;;;17.82;65.93
35443;BME280;21561;55.654;37.592;2023-07-31T03:36:04;98553.94;;;17.82;66.00
35443;BME280;21561;55.654;37.592;2023-07-31T03:38:32;98561.75;;;17.83;66.29
35443;BME280;21561;55.654;37.592;2023-07-31T03:40:59;98562.63;;;17.84;66.15
35443;BME280;21561;55.654;37.592;2023-07-31T03:43:25;98561.66;;;17.85;66.04
35443;BME280;21561;55.654;37.592;2023-07-31T03:45:52;98557.88;;;17.90;66.17
35443;BME280;21561;55.654;37.592;2023-07-31T03:48:19;98561.38;;;17.91;66.25
35443;BME280;21561;55.654;37.592;2023-07-31T03:50:46;98567.38;;;17.93;65.97
35443;BME280;21561;55.654;37.592;2023-07-31T03:53:12;98562.63;;;18.00;66.17
35443;BME280;21561;55.654;37.592;2023-07-31T03:55:39;98557.22;;;18.03;65.95
35443;BME280;21561;55.654;37.592;2023-07-31T03:58:06;98556.78;;;18.10;65.84
35443;BME280;21561;55.654;37.592;2023-07-31T04:00:32;98563.59;;;18.15;65.78
35443;BME280;21561;55.654;37.592;2023-07-31T04:02:59;98556.09;;;18.23;65.95
35443;BME280;21561;55.654;37.592;2023-07-31T04:05:26;98562.13;;;18.25;65.92
35443;BME280;21561;55.654;37.592;2023-07-31T04:07:53;98567.03;;;18.31;65.63
35443;BME280;21561;55.654;37.592;2023-07-31T04:10:19;98571.25;;;18.34;65.81
35443;BME280;21561;55.654;37.592;2023-07-31T04:12:46;98567.44;;;18.39;66.23
35443;BME280;21561;55.654;37.592;2023-07-31T04:15:12;98574.41;;;18.40;65.57
35443;BME280;21561;55.654;37.592;2023-07-31T04:17:39;98577.69;;;18.44;64.75
35443;BME280;21561;55.654;37.592;2023-07-31T04:20:06;98580.09;;;18.48;64.87
35443;BME280;21561;55.654;37.592;2023-07-31T04:22:33;98579.88;;;18.51;65.56
35443;BME280;21561;55.654;37.592;2023-07-31T04:24:59;98587.00;;;18.49;65.20
35443;BME280;21561;55.654;37.592;2023-07-31T04:27:26;98583.53;;;18.49;64.65
35443;BME280;21561;55.654;37.592;2023-07-31T04:29:53;98580.84;;;18.50;64.21
35443;BME280;21561;55.654;37.592;2023-07-31T04:32:19;98581.44;;;18.56;64.33
35443;BME280;21561;55.654;37.592;2023-07-31T04:34:47;98585.72;;;18.57;64.41
35443;BME280;21561;55.654;37.592;2023-07-31T04:37:14;98582.94;;;18.60;64.46
35443;BME280;21561;55.654;37.592;2023-07-31T04:39:40;98588.88;;;18.63;64.54
35443;BME280;21561;55.654;37.592;2023-07-31T04:42:07;98586.16;;;18.65;63.66
35443;BME280;21561;55.654;37.592;2023-07-31T04:44:35;98587.00;;;18.65;62.71
35443;BME280;21561;55.654;37.592;2023-07-31T04:47:01;98588.59;;;18.68;62.87
35443;BME280;21561;55.654;37.592;2023-07-31T04:49:28;98589.38;;;18.70;63.75
35443;BME280;21561;55.654;37.592;2023-07-31T04:51:55;98589.16;;;18.73;63.52
35443;BME280;21561;55.654;37.592;2023-07-31T04:54:22;98586.38;;;18.76;63.58
35443;BME280;21561;55.654;37.592;2023-07-31T04:56:52;98588.66;;;18.82;63.79
35443;BME280;21561;55.654;37.592;2023-07-31T04:59:19;98591.88;;;18.87;63.89
35443;BME280;21561;55.654;37.592;2023-07-31T05:01:45;98593.41;;;18.92;63.48
35443;BME280;21561;55.654;37.592;2023-07-31T05:04:13;98605.44;;;18.96;63.56
35443;BME280;21561;55.654;37.592;2023-07-31T05:06:40;98592.88;;;19.01;63.56
35443;BME280;21561;55.654;37.592;2023-07-31T05:09:07;98587.41;;;19.04;63.50
35443;BME280;21561;55.654;37.592;2023-07-31T05:11:35;98584.44;;;19.10;63.86
35443;BME280;21561;55.654;37.592;2023-07-31T05:14:02;98593.75;;;19.16;63.71
35443;BME280;21561;55.654;37.592;2023-07-31T05:16:29;98590.19;;;19.17;62.34
35443;BME280;21561;55.654;37.592;2023-07-31T05:18:56;98584.47;;;19.24;63.00
35443;BME280;21561;55.654;37.592;2023-07-31T05:21:22;98587.50;;;19.33;63.24
35443;BME280;21561;55.654;37.592;2023-07-31T05:23:49;98589.56;;;19.42;63.14
35443;BME280;21561;55.654;37.592;2023-07-31T05:26:16;98588.44;;;19.46;62.12
35443;BME280;21561;55.654;37.592;2023-07-31T05:28:44;98593.13;;;19.55;62.50
35443;BME280;21561;55.654;37.592;2023-07-31T05:31:11;98592.41;;;19.68;62.69
35443;BME280;21561;55.654;37.592;2023-07-31T05:33:38;98583.22;;;19.75;62.64
35443;BME280;21561;55.654;37.592;2023-07-31T05:36:04;98586.59;;;19.77;59.99
35443;BME280;21561;55.654;37.592;2023-07-31T05:38:31;98593.56;;;19.78;59.87
35443;BME280;21561;55.654;37.592;2023-07-31T05:40:58;98587.91;;;19.84;59.79
35443;BME280;21561;55.654;37.592;2023-07-31T05:43:24;98591.28;;;19.86;58.42
35443;BME280;21561;55.654;37.592;2023-07-31T05:45:51;98600.31;;;19.96;60.30
35443;BME280;21561;55.654;37.592;2023-07-31T05:48:17;98601.06;;;19.98;59.46
35443;BME280;21561;55.654;37.592;2023-07-31T05:50:44;98606.03;;;20.03;60.01
35443;BME280;21561;55.654;37.592;2023-07-31T05:53:11;98601.53;;;20.05;58.92
35443;BME280;21561;55.654;37.592;2023-07-31T05:55:38;98596.81;;;20.10;57.80
35443;BME280;21561;55.654;37.592;2023-07-31T05:58:04;98600.09;;;20.14;58.48
35443;BME280;21561;55.654;37.592;2023-07-31T06:00:31;98598.59;;;20.10;57.38
35443;BME280;21561;55.654;37.592;2023-07-31T06:02:58;98593.78;;;20.16;58.82
35443;BME280;21561;55.654;37.592;2023-07-31T06:05:24;98598.03;;;20.19;58.88
35443;BME280;21561;55.654;37.592;2023-07-31T06:07:52;98583.91;;;20.20;56.03
35443;BME280;21561;55.654;37.592;2023-07-31T06:10:19;98601.00;;;20.27;58.43
35443;BME280;21561;55.654;37.592;2023-07-31T06:12:45;98598.94;;;20.32;58.85
35443;BME280;21561;55.654;37.592;2023-07-31T06:15:12;98589.69;;;20.39;59.14
35443;BME280;21561;55.654;37.592;2023-07-31T06:17:39;98593.72;;;20.45;57.72
35443;BME280;21561;55.654;37.592;2023-07-31T06:20:06;98606.38;;;20.53;58.18
35443;BME280;21561;55.654;37.592;2023-07-31T06:22:33;98605.25;;;20.57;55.86
35443;BME280;21561;55.654;37.592;2023-07-31T06:24:59;98580.41;;;20.61;52.14
35443;BME280;21561;55.654;37.592;2023-07-31T06:27:26;98601.97;;;20.68;55.45
35443;BME280;21561;55.654;37.592;2023-07-31T06:29:52;98597.44;;;20.70;53.87
35443;BME280;21561;55.654;37.592;2023-07-31T06:32:19;98601.63;;;20.72;54.69
35443;BME280;21561;55.654;37.592;2023-07-31T06:34:46;98606.72;;;20.75;56.22
35443;BME280;21561;55.654;37.592;2023-07-31T06:37:12;98606.31;;;20.82;55.43
35443;BME280;21561;55.654;37.592;2023-07-31T06:39:39;98600.66;;;20.88;54.52
35443;BME280;21561;55.654;37.592;2023-07-31T06:42:06;98610.88;;;20.92;54.69
35443;BME280;21561;55.654;37.592;2023-07-31T06:44:33;98609.09;;;20.93;52.90
35443;BME280;21561;55.654;37.592;2023-07-31T06:47:00;98602.75;;;20.95;52.37
35443;BME280;21561;55.654;37.592;2023-07-31T06:49:26;98619.03;;;21.02;53.20
35443;BME280;21561;55.654;37.592;2023-07-31T06:51:53;98619.88;;;21.03;52.42
35443;BME280;21561;55.654;37.592;2023-07-31T06:54:20;98587.09;;;21.07;51.47
35443;BME280;21561;55.654;37.592;2023-07-31T06:56:47;98609.75;;;21.09;51.73
35443;BME280;21561;55.654;37.592;2023-07-31T06:59:13;98625.59;;;21.09;52.42
35443;BME280;21561;55.654;37.592;2023-07-31T07:01:40;98611.13;;;21.15;51.72
35443;BME280;21561;55.654;37.592;2023-07-31T07:04:07;98616.31;;;21.16;51.65
35443;BME280;21561;55.654;37.592;2023-07-31T07:06:33;98588.22;;;21.15;50.12
35443;BME280;21561;55.654;37.592;2023-07-31T07:09:00;98595.75;;;21.22;50.07
35443;BME280;21561;55.654;37.592;2023-07-31T07:11:27;98576.13;;;21.26;48.85
35443;BME280;21561;55.654;37.592;2023-07-31T07:13:54;98581.94;;;21.31;48.71
35443;BME280;21561;55.654;37.592;2023-07-31T07:16:20;98625.00;;;21.44;50.57
35443;BME280;21561;55.654;37.592;2023-07-31T07:18:47;98568.84;;;21.42;47.71
35443;BME280;21561;55.654;37.592;2023-07-31T07:21:29;98588.91;;;21.45;47.88
35443;BME280;21561;55.654;37.592;2023-07-31T07:23:55;98606.44;;;21.46;48.28
35443;BME280;21561;55.654;37.592;2023-07-31T07:26:22;98596.53;;;21.49;47.43
35443;BME280;21561;55.654;37.592;2023-07-31T07:28:49;98598.44;;;21.47;47.31
35443;BME280;21561;55.654;37.592;2023-07-31T07:31:16;98606.88;;;21.52;47.33
35443;BME280;21561;55.654;37.592;2023-07-31T07:33:43;98604.78;;;21.58;47.74
35443;BME280;21561;55.654;37.592;2023-07-31T07:36:09;98631.81;;;21.61;48.03
35443;BME280;21561;55.654;37.592;2023-07-31T07:38:36;98572.91;;;21.61;46.34
35443;BME280;21561;55.654;37.592;2023-07-31T07:41:03;98545.31;;;21.65;45.90
35443;BME280;21561;55.654;37.592;2023-07-31T07:43:30;98561.69;;;21.70;45.71
35443;BME280;21561;55.654;37.592;2023-07-31T07:45:56;98607.72;;;21.79;46.99
35443;BME280;21561;55.654;37.592;2023-07-31T07:48:23;98547.09;;;21.77;44.75
35443;BME280;21561;55.654;37.592;2023-07-31T07:50:51;98581.09;;;21.82;45.98
35443;BME280;21561;55.654;37.592;2023-07-31T07:53:18;98590.50;;;21.86;45.75
35443;BME280;21561;55.654;37.592;2023-07-31T07:55:45;98515.16;;;21.93;44.36
35443;BME280;21561;55.654;37.592;2023-07-31T07:58:11;98582.97;;;21.92;45.64
35443;BME280;21561;55.654;37.592;2023-07-31T08:00:38;98564.59;;;22.04;44.78
35443;BME280;21561;55.654;37.592;2023-07-31T08:03:04;98571.13;;;22.11;45.46
35443;BME280;21561;55.654;37.592;2023-07-31T08:05:32;98586.72;;;22.14;45.06
35443;BME280;21561;55.654;37.592;2023-07-31T08:08:00;98572.34;;;22.18;44.94
35443;BME280;21561;55.654;37.592;2023-07-31T08:10:27;98587.13;;;22.21;44.81
35443;BME280;21561;55.654;37.592;2023-07-31T08:12:54;98555.53;;;22.19;44.36
35443;BME280;21561;55.654;37.592;2023-07-31T08:15:20;98611.00;;;22.19;45.74
35443;BME280;21561;55.654;37.592;2023-07-31T08:17:47;98651.16;;;22.24;46.02
35443;BME280;21561;55.654;37.592;2023-07-31T08:20:14;98619.03;;;22.30;45.58
35443;BME280;21561;55.654;37.592;2023-07-31T08:22:41;98572.97;;;22.35;44.39
35443;BME280;21561;55.654;37.592;2023-07-31T08:25:07;98572.72;;;22.38;44.82
35443;BME280;21561;55.654;37.592;2023-07-31T08:27:34;98501.88;;;22.43;43.11
35443;BME280;21561;55.654;37.592;2023-07-31T08:30:01;98538.03;;;22.42;44.14
35443;BME280;21561;55.654;37.592;2023-07-31T08:32:29;98592.97;;;22.50;44.88
35443;BME280;21561;55.654;37.592;2023-07-31T08:34:56;98606.44;;;22.47;44.51
35443;BME280;21561;55.654;37.592;2023-07-31T08:37:22;98574.97;;;22.55;44.18
35443;BME280;21561;55.654;37.592;2023-07-31T08:39:49;98546.63;;;22.57;43.46
35443;BME280;21561;55.654;37.592;2023-07-31T08:42:15;98576.22;;;22.62;44.01
35443;BME280;21561;55.654;37.592;2023-07-31T08:44:43;98588.53;;;22.75;43.98
35443;BME280;21561;55.654;37.592;2023-07-31T08:47:10;98593.63;;;22.89;44.11
35443;BME280;21561;55.654;37.592;2023-07-31T08:49:37;98559.75;;;22.94;43.51
35443;BME280;21561;55.654;37.592;2023-07-31T08:52:04;98564.03;;;23.08;44.12
35443;BME280;21561;55.654;37.592;2023-07-31T08:54:31;98526.41;;;23.16;42.48
35443;BME280;21561;55.654;37.592;2023-07-31T09:00:29;98547.94;;;23.22;42.75
35443;BME280;21561;55.654;37.592;2023-07-31T09:05:23;98548.06;;;23.32;42.42
35443;BME280;21561;55.654;37.592;2023-07-31T09:07:50;98558.44;;;23.35;42.53
35443;BME280;21561;55.654;37.592;2023-07-31T09:10:17;98598.13;;;23.47;43.80
35443;BME280;21561;55.654;37.592;2023-07-31T09:12:44;98546.41;;;23.54;43.16
35443;BME280;21561;55.654;37.592;2023-07-31T09:15:12;98552.19;;;23.59;43.07
35443;BME280;21561;55.654;37.592;2023-07-31T09:17:59;98517.63;;;23.38;41.93
35443;BME280;21561;55.654;37.592;2023-07-31T09:20:27;98506.69;;;23.31;41.38
35443;BME280;21561;55.654;37.592;2023-07-31T09:22:54;98577.78;;;23.36;43.13
35443;BME280;21561;55.654;37.592;2023-07-31T09:25:22;98582.47;;;23.43;42.86
35443;BME280;21561;55.654;37.592;2023-07-31T09:27:50;98623.91;;;23.56;43.75
35443;BME280;21561;55.654;37.592;2023-07-31T09:30:18;98389.56;;;23.61;38.97
35443;BME280;21561;55.654;37.592;2023-07-31T09:32:45;98482.38;;;23.60;40.29
35443;BME280;21561;55.654;37.592;2023-07-31T09:37:41;98520.63;;;23.56;41.73
35443;BME280;21561;55.654;37.592;2023-07-31T09:40:08;98428.09;;;23.54;39.67
35443;BME280;21561;55.654;37.592;2023-07-31T09:42:35;98482.97;;;23.63;40.71
35443;BME280;21561;55.654;37.592;2023-07-31T09:45:07;98454.44;;;23.67;40.18
35443;BME280;21561;55.654;37.592;2023-07-31T09:47:35;98527.41;;;23.82;41.50
35443;BME280;21561;55.654;37.592;2023-07-31T09:50:05;98525.09;;;23.89;41.50
35443;BME280;21561;55.654;37.592;2023-07-31T09:52:33;98494.16;;;23.90;41.13
35443;BME280;21561;55.654;37.592;2023-07-31T09:55:00;98482.00;;;23.87;40.12
35443;BME280;21561;55.654;37.592;2023-07-31T09:57:26;98515.09;;;23.93;40.58
35443;BME280;21561;55.654;37.592;2023-07-31T09:59:54;98504.94;;;24.09;41.03
35443;BME280;21561;55.654;37.592;2023-07-31T10:02:21;98465.16;;;24.20;39.79
35443;BME280;21561;55.654;37.592;2023-07-31T10:04:49;98421.56;;;24.25;38.81
35443;BME280;21561;55.654;37.592;2023-07-31T10:07:17;98410.25;;;24.11;38.71
35443;BME280;21561;55.654;37.592;2023-07-31T10:09:45;98428.16;;;23.98;38.89
35443;BME280;21561;55.654;37.592;2023-07-31T10:12:12;98435.03;;;23.89;39.84
35443;BME280;21561;55.654;37.592;2023-07-31T10:14:41;98447.47;;;23.89;39.65
35443;BME280;21561;55.654;37.592;2023-07-31T10:17:07;98432.28;;;23.91;39.09
35443;BME280;21561;55.654;37.592;2023-07-31T10:19:34;98482.06;;;24.08;39.27
35443;BME280;21561;55.654;37.592;2023-07-31T10:22:02;98458.06;;;24.42;39.46
35443;BME280;21561;55.654;37.592;2023-07-31T10:24:29;98413.34;;;25.22;37.65
35443;BME280;21561;55.654;37.592;2023-07-31T10:26:57;98444.25;;;25.73;39.47
35443;BME280;21561;55.654;37.592;2023-07-31T10:29:24;98432.34;;;26.27;38.84
35443;BME280;21561;55.654;37.592;2023-07-31T10:31:52;98200.06;;;26.46;34.57
35443;BME280;21561;55.654;37.592;2023-07-31T10:34:18;98184.22;;;26.27;34.86
35443;BME280;21561;55.654;37.592;2023-07-31T10:36:45;98310.06;;;25.98;37.61
35443;BME280;21561;55.654;37.592;2023-07-31T10:39:34;98321.38;;;25.71;37.61
35443;BME280;21561;55.654;37.592;2023-07-31T10:41:59;98373.06;;;25.38;37.88
35443;BME280;21561;55.654;37.592;2023-07-31T10:44:25;98393.31;;;25.08;37.63
35443;BME280;21561;55.654;37.592;2023-07-31T10:46:54;98423.91;;;24.81;37.96
35443;BME280;21561;55.654;37.592;2023-07-31T10:49:21;98457.66;;;24.58;38.60
35443;BME280;21561;55.654;37.592;2023-07-31T10:51:48;98442.16;;;24.42;38.27
35443;BME280;21561;55.654;37.592;2023-07-31T10:54:15;98448.50;;;24.30;38.21
35443;BME280;21561;55.654;37.592;2023-07-31T10:56:45;98447.59;;;24.19;38.35
35443;BME280;21561;55.654;37.592;2023-07-31T10:59:14;98482.50;;;24.25;38.53
35443;BME280;21561;55.654;37.592;2023-07-31T11:01:53;98518.88;;;24.34;39.04
35443;BME280;21561;55.654;37.592;2023-07-31T11:04:26;98508.84;;;24.37;38.95
35443;BME280;21561;55.654;37.592;2023-07-31T11:07:01;98544.50;;;24.33;39.68
35443;BME280;21561;55.654;37.592;2023-07-31T11:09:30;98546.44;;;24.31;39.58
35443;BME280;21561;55.654;37.592;2023-07-31T11:11:58;98569.22;;;24.34;40.19
35443;BME280;21561;55.654;37.592;2023-07-31T11:14:25;98540.97;;;24.44;39.46
35443;BME280;21561;55.654;37.592;2023-07-31T11:16:52;98537.56;;;24.65;39.33
35443;BME280;21561;55.654;37.592;2023-07-31T11:19:22;98564.91;;;24.76;40.14
35443;BME280;21561;55.654;37.592;2023-07-31T11:21:53;98496.88;;;24.75;38.65
35443;BME280;21561;55.654;37.592;2023-07-31T11:24:20;98461.34;;;25.09;38.71
35443;BME280;21561;55.654;37.592;2023-07-31T11:26:53;98317.59;;;25.93;35.88
35443;BME280;21561;55.654;37.592;2023-07-31T11:29:20;98312.44;;;27.23;35.75
35443;BME280;21561;55.654;37.592;2023-07-31T11:31:47;98147.22;;;28.22;34.01
35443;BME280;21561;55.654;37.592;2023-07-31T11:34:14;98228.72;;;28.24;34.38
35443;BME280;21561;55.654;37.592;2023-07-31T11:36:42;98125.72;;;27.63;33.52
35443;BME280;21561;55.654;37.592;2023-07-31T11:39:18;98357.56;;;27.25;36.63
35443;BME280;21561;55.654;37.592;2023-07-31T11:41:45;98314.94;;;26.79;35.66
35443;BME280;21561;55.654;37.592;2023-07-31T11:44:11;98375.50;;;26.38;37.82
35443;BME280;21561;55.654;37.592;2023-07-31T11:46:52;98427.97;;;25.97;37.62
35443;BME280;21561;55.654;37.592;2023-07-31T11:49:19;98480.88;;;25.69;38.39
35443;BME280;21561;55.654;37.592;2023-07-31T11:51:46;98520.91;;;25.78;38.73
35443;BME280;21561;55.654;37.592;2023-07-31T11:54:12;98513.16;;;26.05;38.27
35443;BME280;21561;55.654;37.592;2023-07-31T11:56:40;98473.19;;;26.75;37.87
35443;BME280;21561;55.654;37.592;2023-07-31T11:59:07;98362.28;;;27.41;35.92
35443;BME280;21561;55.654;37.592;2023-07-31T12:01:34;98308.69;;;28.16;35.71
35443;BME280;21561;55.654;37.592;2023-07-31T12:04:01;98226.06;;;28.24;34.30
35443;BME280;21561;55.654;37.592;2023-07-31T12:06:35;98264.44;;;28.31;34.94
35443;BME280;21561;55.654;37.592;2023-07-31T12:09:05;98166.56;;;28.58;33.15
35443;BME280;21561;55.654;37.592;2023-07-31T12:11:42;98151.00;;;28.11;33.81
35443;BME280;21561;55.654;37.592;2023-07-31T12:14:18;98213.25;;;27.57;34.53
35443;BME280;21561;55.654;37.592;2023-07-31T12:16:45;98278.94;;;27.67;35.22
35443;BME280;21561;55.654;37.592;2023-07-31T12:19:12;98298.94;;;27.35;35.67
35443;BME280;21561;55.654;37.592;2023-07-31T12:21:39;98403.66;;;26.98;36.81
35443;BME280;21561;55.654;37.592;2023-07-31T12:24:05;98486.63;;;26.74;37.95
35443;BME280;21561;55.654;37.592;2023-07-31T12:29:35;98501.75;;;26.44;37.99
35443;BME280;21561;55.654;37.592;2023-07-31T12:32:20;98536.94;;;26.07;38.53
35443;BME280;21561;55.654;37.592;2023-07-31T12:34:47;98480.47;;;26.73;36.18
35443;BME280;21561;55.654;37.592;2023-07-31T12:37:13;98423.31;;;26.77;36.58
35443;BME280;21561;55.654;37.592;2023-07-31T12:39:40;98417.59;;;27.19;36.16
35443;BME280;21561;55.654;37.592;2023-07-31T12:42:07;98339.16;;;27.59;35.23
35443;BME280;21561;55.654;37.592;2023-07-31T12:44:33;98352.56;;;27.68;35.72
35443;BME280;21561;55.654;37.592;2023-07-31T12:47:00;98280.75;;;28.02;34.46
35443;BME280;21561;55.654;37.592;2023-07-31T12:49:27;98287.16;;;27.37;35.14
35443;BME280;21561;55.654;37.592;2023-07-31T12:51:53;98422.75;;;26.83;36.96
35443;BME280;21561;55.654;37.592;2023-07-31T12:54:20;98522.44;;;26.21;38.45
35443;BME280;21561;55.654;37.592;2023-07-31T12:56:47;98540.59;;;25.75;38.17
35443;BME280;21561;55.654;37.592;2023-07-31T12:59:13;98571.41;;;25.47;38.52
35443;BME280;21561;55.654;37.592;2023-07-31T13:01:40;98628.03;;;25.15;39.79
35443;BME280;21561;55.654;37.592;2023-07-31T13:04:07;98616.88;;;25.00;39.09
35443;BME280;21561;55.654;37.592;2023-07-31T13:06:35;98668.78;;;24.93;40.16
35443;BME280;21561;55.654;37.592;2023-07-31T13:09:01;98687.38;;;24.82;40.01
35443;BME280;21561;55.654;37.592;2023-07-31T13:11:28;98703.41;;;24.91;40.10